createdAt,value
2018-02-09T00:00:15.414Z,0.00
2018-02-09T00:01:15.402Z,0.00
2018-02-09T00:02:15.388Z,0.00
2018-02-09T00:03:15.375Z,0.00
2018-02-09T00:04:15.362Z,0.00
2018-02-09T00:05:15.349Z,0.00
2018-02-09T00:06:15.338Z,0.00
2018-02-09T00:07:15.323Z,0.00
2018-02-09T00:08:15.309Z,0.00
2018-02-09T00:09:15.296Z,0.00
2018-02-09T00:10:15.289Z,0.00
2018-02-09T00:11:15.271Z,0.00
2018-02-09T00:12:15.258Z,0.00
2018-02-09T00:13:15.244Z,0.00
2018-02-09T00:14:15.233Z,0.00
2018-02-09T00:15:15.218Z,0.00
2018-02-09T00:16:15.203Z,0.00
2018-02-09T00:17:15.192Z,0.00
2018-02-09T00:18:15.179Z,0.00
2018-02-09T00:19:15.167Z,0.00
2018-02-09T00:20:15.151Z,0.00
2018-02-09T00:21:15.141Z,0.00
2018-02-09T00:22:15.130Z,0.00
2018-02-09T00:23:15.117Z,0.00
2018-02-09T00:24:15.100Z,0.00
2018-02-09T00:25:15.082Z,0.00
2018-02-09T00:26:15.077Z,0.00
2018-02-09T00:27:15.063Z,0.00
2018-02-09T00:28:15.050Z,0.00
2018-02-09T00:29:15.036Z,0.00
2018-02-09T00:30:15.023Z,0.00
2018-02-09T00:31:15.011Z,0.00
2018-02-09T00:32:14.995Z,0.00
2018-02-09T00:33:14.987Z,0.00
2018-02-09T00:34:14.971Z,0.00
2018-02-09T00:35:14.954Z,0.00
2018-02-09T00:36:14.942Z,0.00
2018-02-09T00:37:14.933Z,0.00
2018-02-09T00:38:14.918Z,0.00
2018-02-09T00:39:14.904Z,0.00
2018-02-09T00:40:14.891Z,0.00
2018-02-09T00:41:14.877Z,0.00
2018-02-09T00:42:14.865Z,0.00
2018-02-09T00:43:14.856Z,0.00
2018-02-09T00:44:14.839Z,0.00
2018-02-09T00:45:14.826Z,0.00
2018-02-09T00:46:14.813Z,0.00
2018-02-09T00:47:14.800Z,0.00
2018-02-09T00:48:14.785Z,0.00
2018-02-09T00:49:14.773Z,0.00
2018-02-09T00:50:14.761Z,0.00
2018-02-09T00:51:14.743Z,0.00
2018-02-09T00:52:14.732Z,0.00
2018-02-09T00:53:14.723Z,0.00
2018-02-09T00:54:14.709Z,0.00
2018-02-09T00:55:14.697Z,0.00
2018-02-09T00:56:14.681Z,0.00
2018-02-09T00:57:14.669Z,0.00
2018-02-09T00:58:14.656Z,0.00
2018-02-09T00:59:14.643Z,0.00
2018-02-09T01:00:14.629Z,0.00
2018-02-09T01:01:14.615Z,0.00
2018-02-09T01:02:14.605Z,0.00
2018-02-09T01:03:14.590Z,0.00
2018-02-09T01:04:14.578Z,0.00
2018-02-09T01:05:14.564Z,0.00
2018-02-09T01:06:14.549Z,0.00
2018-02-09T01:07:14.536Z,0.00
2018-02-09T01:08:14.527Z,0.00
2018-02-09T01:09:14.512Z,0.00
2018-02-09T01:10:14.496Z,0.00
2018-02-09T01:11:14.484Z,0.00
2018-02-09T01:12:14.472Z,0.00
2018-02-09T01:13:14.455Z,0.00
2018-02-09T01:14:14.453Z,0.00
2018-02-09T01:15:14.431Z,0.00
2018-02-09T01:16:14.421Z,0.00
2018-02-09T01:17:14.404Z,0.00
2018-02-09T01:18:14.439Z,0.00
2018-02-09T01:19:14.379Z,0.00
2018-02-09T01:20:14.366Z,0.00
2018-02-09T01:21:14.361Z,0.00
2018-02-09T01:22:14.339Z,0.00
2018-02-09T01:23:14.323Z,0.00
2018-02-09T01:24:14.315Z,0.00
2018-02-09T01:25:14.301Z,0.00
2018-02-09T01:26:14.287Z,0.00
2018-02-09T01:27:14.271Z,0.00
2018-02-09T01:28:14.260Z,0.00
2018-02-09T01:29:14.247Z,0.00
2018-02-09T01:30:14.236Z,0.00
2018-02-09T01:31:14.225Z,0.00
2018-02-09T01:32:14.205Z,0.00
2018-02-09T01:33:14.194Z,0.00
2018-02-09T01:34:14.180Z,0.00
2018-02-09T01:35:14.166Z,0.00
2018-02-09T01:36:14.153Z,0.00
2018-02-09T01:37:14.142Z,0.00
2018-02-09T01:38:14.128Z,0.00
2018-02-09T01:39:14.113Z,0.00
2018-02-09T01:40:14.101Z,0.00
2018-02-09T01:41:14.090Z,0.00
2018-02-09T01:42:14.074Z,0.00
2018-02-09T01:43:14.060Z,0.00
2018-02-09T01:44:14.048Z,0.00
2018-02-09T01:45:14.034Z,0.00
2018-02-09T01:46:14.021Z,0.00
2018-02-09T01:47:14.008Z,0.00
2018-02-09T01:48:13.995Z,0.00
2018-02-09T01:49:13.982Z,0.00
2018-02-09T01:50:13.970Z,0.00
2018-02-09T01:51:13.956Z,0.00
2018-02-09T01:52:13.941Z,0.00
2018-02-09T01:53:13.928Z,0.00
2018-02-09T01:54:13.915Z,0.00
2018-02-09T01:55:13.904Z,0.00
2018-02-09T01:56:13.887Z,0.00
2018-02-09T01:57:13.876Z,0.00
2018-02-09T01:58:13.863Z,0.00
2018-02-09T01:59:13.846Z,0.00
2018-02-09T02:00:13.836Z,0.00
2018-02-09T02:01:13.821Z,0.00
2018-02-09T02:02:13.810Z,0.00
2018-02-09T02:03:13.794Z,0.00
2018-02-09T02:04:13.782Z,0.00
2018-02-09T02:05:13.769Z,0.00
2018-02-09T02:06:13.757Z,0.00
2018-02-09T02:07:13.741Z,0.00
2018-02-09T02:08:13.729Z,0.00
2018-02-09T02:09:13.716Z,0.00
2018-02-09T02:10:13.706Z,0.00
2018-02-09T02:11:13.691Z,0.00
2018-02-09T02:12:13.675Z,0.00
2018-02-09T02:13:13.660Z,0.00
2018-02-09T02:14:13.649Z,0.00
2018-02-09T02:15:13.635Z,0.00
2018-02-09T02:16:13.623Z,0.00
2018-02-09T02:17:13.614Z,0.00
2018-02-09T02:18:13.596Z,0.00
2018-02-09T02:19:13.584Z,0.00
2018-02-09T02:20:13.569Z,0.00
2018-02-09T02:21:13.555Z,0.00
2018-02-09T02:22:13.543Z,0.00
2018-02-09T02:23:13.529Z,0.00
2018-02-09T02:24:13.515Z,0.00
2018-02-09T02:25:13.501Z,0.00
2018-02-09T02:26:13.491Z,0.00
2018-02-09T02:27:13.478Z,0.00
2018-02-09T02:28:13.462Z,0.00
2018-02-09T02:29:13.449Z,0.00
2018-02-09T02:30:13.436Z,0.00
2018-02-09T02:31:13.420Z,0.00
2018-02-09T02:32:13.409Z,0.00
2018-02-09T02:33:13.393Z,0.00
2018-02-09T02:34:13.382Z,0.00
2018-02-09T02:35:13.368Z,0.00
2018-02-09T02:36:13.356Z,0.00
2018-02-09T02:37:13.341Z,0.00
2018-02-09T02:38:13.327Z,0.00
2018-02-09T02:39:13.315Z,0.00
2018-02-09T02:40:13.304Z,0.00
2018-02-09T02:41:13.287Z,0.00
2018-02-09T02:42:13.274Z,0.00
2018-02-09T02:43:13.260Z,0.00
2018-02-09T02:44:13.254Z,0.00
2018-02-09T02:45:13.234Z,0.00
2018-02-09T02:46:13.221Z,0.00
2018-02-09T02:47:13.207Z,0.00
2018-02-09T02:48:13.196Z,0.00
2018-02-09T02:49:13.182Z,0.00
2018-02-09T02:50:13.167Z,0.00
2018-02-09T02:51:13.155Z,0.00
2018-02-09T02:52:13.148Z,0.00
2018-02-09T02:53:13.125Z,0.00
2018-02-09T02:54:13.111Z,0.00
2018-02-09T02:55:13.110Z,0.00
2018-02-09T02:56:13.084Z,0.00
2018-02-09T02:57:13.077Z,0.00
2018-02-09T02:58:13.059Z,0.00
2018-02-09T02:59:13.047Z,0.00
2018-02-09T03:00:13.032Z,0.00
2018-02-09T03:01:13.021Z,0.00
2018-02-09T03:02:13.009Z,0.00
2018-02-09T03:03:12.991Z,0.00
2018-02-09T03:04:12.978Z,0.00
2018-02-09T03:05:12.983Z,0.00
2018-02-09T03:06:12.953Z,0.00
2018-02-09T03:07:12.941Z,0.00
2018-02-09T03:08:12.925Z,0.00
2018-02-09T03:09:12.912Z,0.00
2018-02-09T03:10:12.902Z,0.00
2018-02-09T03:11:12.883Z,0.00
2018-02-09T03:12:12.873Z,0.00
2018-02-09T03:13:12.859Z,0.00
2018-02-09T03:14:12.846Z,0.00
2018-02-09T03:15:12.831Z,0.00
2018-02-09T03:16:12.818Z,0.00
2018-02-09T03:17:12.806Z,0.00
2018-02-09T03:18:12.791Z,0.00
2018-02-09T03:19:12.778Z,0.00
2018-02-09T03:20:12.762Z,0.00
2018-02-09T03:21:12.749Z,0.00
2018-02-09T03:22:12.736Z,0.00
2018-02-09T03:23:12.735Z,0.00
2018-02-09T03:24:12.710Z,0.00
2018-02-09T03:25:12.696Z,0.00
2018-02-09T03:26:12.683Z,0.00
2018-02-09T03:27:12.668Z,0.00
2018-02-09T03:28:12.655Z,0.00
2018-02-09T03:29:12.642Z,0.00
2018-02-09T03:30:12.629Z,0.00
2018-02-09T03:31:12.615Z,0.00
2018-02-09T03:32:12.604Z,0.00
2018-02-09T03:33:12.588Z,0.00
2018-02-09T03:34:12.578Z,0.00
2018-02-09T03:35:12.559Z,0.00
2018-02-09T03:36:12.548Z,0.00
2018-02-09T03:37:12.533Z,0.00
2018-02-09T03:38:12.521Z,0.00
2018-02-09T03:39:12.510Z,0.00
2018-02-09T03:40:12.493Z,0.00
2018-02-09T03:41:12.480Z,0.00
2018-02-09T03:42:12.465Z,0.00
2018-02-09T03:43:12.451Z,0.00
2018-02-09T03:44:12.441Z,0.00
2018-02-09T03:45:12.424Z,0.00
2018-02-09T03:46:12.411Z,0.00
2018-02-09T03:47:12.398Z,0.00
2018-02-09T03:48:12.384Z,0.00
2018-02-09T03:49:12.377Z,0.00
2018-02-09T03:50:12.358Z,0.00
2018-02-09T03:51:12.342Z,0.00
2018-02-09T03:52:12.332Z,0.00
2018-02-09T03:53:12.316Z,0.00
2018-02-09T03:54:12.305Z,0.00
2018-02-09T03:55:12.286Z,0.00
2018-02-09T03:56:12.271Z,0.00
2018-02-09T03:57:12.262Z,0.00
2018-02-09T03:58:12.249Z,0.00
2018-02-09T03:59:12.233Z,0.00
2018-02-09T04:00:12.219Z,0.00
2018-02-09T04:01:12.208Z,0.00
2018-02-09T04:02:12.194Z,0.00
2018-02-09T04:03:12.180Z,0.00
2018-02-09T04:04:12.165Z,0.00
2018-02-09T04:05:12.150Z,0.00
2018-02-09T04:06:12.140Z,0.00
2018-02-09T04:07:12.132Z,0.00
2018-02-09T04:08:12.111Z,0.00
2018-02-09T04:09:12.099Z,0.00
2018-02-09T04:10:12.084Z,0.00
2018-02-09T04:11:12.070Z,0.00
2018-02-09T04:12:12.058Z,0.00
2018-02-09T04:13:12.042Z,0.00
2018-02-09T04:14:12.032Z,0.00
2018-02-09T04:15:12.013Z,0.00
2018-02-09T04:16:12.003Z,0.00
2018-02-09T04:17:11.988Z,0.00
2018-02-09T04:18:11.978Z,0.00
2018-02-09T04:19:11.960Z,0.00
2018-02-09T04:20:11.945Z,0.00
2018-02-09T04:21:11.936Z,0.00
2018-02-09T04:22:11.918Z,0.00
2018-02-09T04:23:11.909Z,0.00
2018-02-09T04:24:11.893Z,0.00
2018-02-09T04:25:11.883Z,0.00
2018-02-09T04:26:11.865Z,0.00
2018-02-09T04:27:11.852Z,0.00
2018-02-09T04:28:11.839Z,0.00
2018-02-09T04:29:11.823Z,0.00
2018-02-09T04:30:11.812Z,0.00
2018-02-09T04:31:11.796Z,0.00
2018-02-09T04:32:11.787Z,0.00
2018-02-09T04:33:11.768Z,0.00
2018-02-09T04:34:11.755Z,0.00
2018-02-09T04:35:11.740Z,0.00
2018-02-09T04:36:11.728Z,0.00
2018-02-09T04:37:11.713Z,0.00
2018-02-09T04:38:11.701Z,0.00
2018-02-09T04:39:11.689Z,0.00
2018-02-09T04:40:11.671Z,0.00
2018-02-09T04:41:11.660Z,0.00
2018-02-09T04:42:11.651Z,0.00
2018-02-09T04:43:11.638Z,0.00
2018-02-09T04:44:11.618Z,0.00
2018-02-09T04:45:11.602Z,0.00
2018-02-09T04:46:11.592Z,0.00
2018-02-09T04:47:11.578Z,0.00
2018-02-09T04:48:11.572Z,0.00
2018-02-09T04:49:11.548Z,0.00
2018-02-09T04:50:11.536Z,0.00
2018-02-09T04:51:11.523Z,0.00
2018-02-09T04:52:11.510Z,0.00
2018-02-09T04:53:11.495Z,0.00
2018-02-09T04:54:11.478Z,0.00
2018-02-09T04:55:11.465Z,0.00
2018-02-09T04:56:11.452Z,0.00
2018-02-09T04:57:11.441Z,0.00
2018-02-09T04:58:11.427Z,0.00
2018-02-09T04:59:11.417Z,0.00
2018-02-09T05:00:11.398Z,0.00
2018-02-09T05:01:11.382Z,0.00
2018-02-09T05:02:11.372Z,0.00
2018-02-09T05:03:11.359Z,0.00
2018-02-09T05:04:11.345Z,0.00
2018-02-09T05:05:11.328Z,0.00
2018-02-09T05:06:11.318Z,0.00
2018-02-09T05:07:11.304Z,0.00
2018-02-09T05:08:11.293Z,0.00
2018-02-09T05:09:11.273Z,0.00
2018-02-09T05:10:11.259Z,0.00
2018-02-09T05:11:11.247Z,0.00
2018-02-09T05:12:11.233Z,0.00
2018-02-09T05:13:11.222Z,0.00
2018-02-09T05:14:11.205Z,0.00
2018-02-09T05:15:11.192Z,0.00
2018-02-09T05:16:11.182Z,0.00
2018-02-09T05:17:11.165Z,0.00
2018-02-09T05:18:11.150Z,0.00
2018-02-09T05:19:11.138Z,0.00
2018-02-09T05:20:11.123Z,0.00
2018-02-09T05:21:11.106Z,0.00
2018-02-09T05:22:11.094Z,0.00
2018-02-09T05:23:11.082Z,0.00
2018-02-09T05:24:11.066Z,0.00
2018-02-09T05:25:11.055Z,0.00
2018-02-09T05:26:11.040Z,0.00
2018-02-09T05:27:11.027Z,0.00
2018-02-09T05:28:11.013Z,0.00
2018-02-09T05:29:11.002Z,0.00
2018-02-09T05:30:10.983Z,0.00
2018-02-09T05:31:10.967Z,0.00
2018-02-09T05:32:10.956Z,0.00
2018-02-09T05:33:10.943Z,0.00
2018-02-09T05:34:10.930Z,0.00
2018-02-09T05:35:10.918Z,0.00
2018-02-09T05:36:10.902Z,0.00
2018-02-09T05:37:10.940Z,0.00
2018-02-09T05:38:10.874Z,0.00
2018-02-09T05:39:10.860Z,0.00
2018-02-09T05:40:10.847Z,0.00
2018-02-09T05:41:10.833Z,0.00
2018-02-09T05:42:10.827Z,0.00
2018-02-09T05:43:10.803Z,0.00
2018-02-09T05:44:10.789Z,0.00
2018-02-09T05:45:10.772Z,0.00
2018-02-09T05:46:10.763Z,0.00
2018-02-09T05:47:10.749Z,0.00
2018-02-09T05:48:10.737Z,0.00
2018-02-09T05:49:10.721Z,0.00
2018-02-09T05:50:10.710Z,0.00
2018-02-09T05:51:10.693Z,0.00
2018-02-09T05:52:10.680Z,0.00
2018-02-09T05:53:10.665Z,0.00
2018-02-09T05:54:10.652Z,0.00
2018-02-09T05:55:10.638Z,0.00
2018-02-09T05:56:10.623Z,0.00
2018-02-09T05:57:10.627Z,0.00
2018-02-09T05:58:10.597Z,0.00
2018-02-09T05:59:10.583Z,0.00
2018-02-09T06:00:10.568Z,0.00
2018-02-09T06:01:10.556Z,0.00
2018-02-09T06:02:10.543Z,0.00
2018-02-09T06:03:10.527Z,0.00
2018-02-09T06:04:10.521Z,0.00
2018-02-09T06:05:10.501Z,0.00
2018-02-09T06:06:10.486Z,0.00
2018-02-09T06:07:10.470Z,0.00
2018-02-09T06:08:10.458Z,0.00
2018-02-09T06:09:10.445Z,0.00
2018-02-09T06:10:10.430Z,0.00
2018-02-09T06:11:10.417Z,0.00
2018-02-09T06:12:10.403Z,0.00
2018-02-09T06:13:10.390Z,0.00
2018-02-09T06:14:10.375Z,0.00
2018-02-09T06:15:10.361Z,0.00
2018-02-09T06:16:10.347Z,0.00
2018-02-09T06:17:10.348Z,0.00
2018-02-09T06:18:10.319Z,0.00
2018-02-09T06:19:10.305Z,0.00
2018-02-09T06:20:10.290Z,0.00
2018-02-09T06:21:10.276Z,0.00
2018-02-09T06:22:10.262Z,0.00
2018-02-09T06:23:10.249Z,0.00
2018-02-09T06:24:10.235Z,0.00
2018-02-09T06:25:10.218Z,0.00
2018-02-09T06:26:10.207Z,0.00
2018-02-09T06:27:10.194Z,0.00
2018-02-09T06:28:10.180Z,0.00
2018-02-09T06:29:10.168Z,0.00
2018-02-09T06:30:10.151Z,0.00
2018-02-09T06:31:10.138Z,0.00
2018-02-09T06:32:10.128Z,5.63
2018-02-09T06:33:10.113Z,5.63
2018-02-09T06:34:10.097Z,5.63
2018-02-09T06:35:10.081Z,5.63
2018-02-09T06:36:10.067Z,5.63
2018-02-09T06:37:10.054Z,5.63
2018-02-09T06:38:10.042Z,5.63
2018-02-09T06:39:10.028Z,5.63
2018-02-09T06:40:10.010Z,5.63
2018-02-09T06:41:10.007Z,5.63
2018-02-09T06:42:09.988Z,11.25
2018-02-09T06:43:09.970Z,11.25
2018-02-09T06:44:09.957Z,11.25
2018-02-09T06:45:09.942Z,11.25
2018-02-09T06:46:09.929Z,11.25
2018-02-09T06:47:09.916Z,11.25
2018-02-09T06:48:09.901Z,16.88
2018-02-09T06:49:09.886Z,16.88
2018-02-09T06:50:09.877Z,16.88
2018-02-09T06:51:09.858Z,16.88
2018-02-09T06:52:09.865Z,16.88
2018-02-09T06:53:09.830Z,16.88
2018-02-09T06:54:09.817Z,22.50
2018-02-09T06:55:09.803Z,22.50
2018-02-09T06:56:09.792Z,22.50
2018-02-09T06:57:09.782Z,22.50
2018-02-09T06:58:09.764Z,22.50
2018-02-09T06:59:09.745Z,22.50
2018-02-09T07:00:09.756Z,22.50
2018-02-09T07:01:09.722Z,22.50
2018-02-09T07:02:09.708Z,22.50
2018-02-09T07:03:09.690Z,22.50
2018-02-09T07:04:09.675Z,22.50
2018-02-09T07:05:09.665Z,28.13
2018-02-09T07:06:09.651Z,28.13
2018-02-09T07:07:09.637Z,28.13
2018-02-09T07:08:09.621Z,28.13
2018-02-09T07:09:09.610Z,28.13
2018-02-09T07:10:09.595Z,28.13
2018-02-09T07:11:09.579Z,33.75
2018-02-09T07:12:09.572Z,33.75
2018-02-09T07:13:09.551Z,33.75
2018-02-09T07:14:09.538Z,33.75
2018-02-09T07:15:09.536Z,33.75
2018-02-09T07:16:09.512Z,33.75
2018-02-09T07:17:09.497Z,33.75
2018-02-09T07:18:09.483Z,39.38
2018-02-09T07:19:09.469Z,39.38
2018-02-09T07:20:09.458Z,39.38
2018-02-09T07:21:09.445Z,45.00
2018-02-09T07:22:09.428Z,45.00
2018-02-09T07:23:09.416Z,45.00
2018-02-09T07:24:09.403Z,45.00
2018-02-09T07:25:09.388Z,45.00
2018-02-09T07:26:09.374Z,45.00
2018-02-09T07:27:09.359Z,45.00
2018-02-09T07:28:09.346Z,50.63
2018-02-09T07:29:09.333Z,50.63
2018-02-09T07:30:09.321Z,50.63
2018-02-09T07:31:09.304Z,50.63
2018-02-09T07:32:09.313Z,50.63
2018-02-09T07:33:09.280Z,50.63
2018-02-09T07:34:09.265Z,50.63
2018-02-09T07:35:09.252Z,56.25
2018-02-09T07:36:09.237Z,56.25
2018-02-09T07:37:09.225Z,61.88
2018-02-09T07:38:09.210Z,73.13
2018-02-09T07:39:09.199Z,78.75
2018-02-09T07:40:09.183Z,73.13
2018-02-09T07:41:09.172Z,73.13
2018-02-09T07:42:09.158Z,73.13
2018-02-09T07:43:09.143Z,67.50
2018-02-09T07:44:09.129Z,67.50
2018-02-09T07:45:09.116Z,73.13
2018-02-09T07:46:09.103Z,73.13
2018-02-09T07:47:09.088Z,73.13
2018-02-09T07:48:09.075Z,73.13
2018-02-09T07:49:09.062Z,78.75
2018-02-09T07:50:09.049Z,78.75
2018-02-09T07:51:09.035Z,84.38
2018-02-09T07:52:09.023Z,84.38
2018-02-09T07:53:09.009Z,90.00
2018-02-09T07:54:08.995Z,90.00
2018-02-09T07:55:08.982Z,90.00
2018-02-09T07:56:08.969Z,90.00
2018-02-09T07:57:08.953Z,90.00
2018-02-09T07:58:08.949Z,90.00
2018-02-09T07:59:08.928Z,90.00
2018-02-09T08:00:08.918Z,95.63
2018-02-09T08:01:08.902Z,95.63
2018-02-09T08:02:08.887Z,95.63
2018-02-09T08:03:08.877Z,95.63
2018-02-09T08:04:08.862Z,101.25
2018-02-09T08:05:08.848Z,101.25
2018-02-09T08:06:08.837Z,101.25
2018-02-09T08:07:08.823Z,101.25
2018-02-09T08:08:08.818Z,106.88
2018-02-09T08:09:08.798Z,106.88
2018-02-09T08:10:08.786Z,112.50
2018-02-09T08:11:08.809Z,112.50
2018-02-09T08:12:08.759Z,112.50
2018-02-09T08:13:08.751Z,118.13
2018-02-09T08:14:08.733Z,118.13
2018-02-09T08:15:08.720Z,118.13
2018-02-09T08:16:08.712Z,118.13
2018-02-09T08:17:08.694Z,118.13
2018-02-09T08:18:08.684Z,123.75
2018-02-09T08:19:08.670Z,129.38
2018-02-09T08:20:08.654Z,123.75
2018-02-09T08:21:08.643Z,123.75
2018-02-09T08:22:08.632Z,129.38
2018-02-09T08:23:08.618Z,123.75
2018-02-09T08:24:08.608Z,129.38
2018-02-09T08:25:08.596Z,123.75
2018-02-09T08:26:08.579Z,123.75
2018-02-09T08:27:08.568Z,123.75
2018-02-09T08:28:08.556Z,129.38
2018-02-09T08:29:08.543Z,129.38
2018-02-09T08:30:08.534Z,123.75
2018-02-09T08:31:08.524Z,123.75
2018-02-09T08:32:08.505Z,123.75
2018-02-09T08:33:08.494Z,135.00
2018-02-09T08:34:08.482Z,140.63
2018-02-09T08:35:08.480Z,135.00
2018-02-09T08:36:08.456Z,135.00
2018-02-09T08:37:08.445Z,135.00
2018-02-09T08:38:08.432Z,135.00
2018-02-09T08:39:08.419Z,135.00
2018-02-09T08:40:08.417Z,135.00
2018-02-09T08:41:08.402Z,135.00
2018-02-09T08:42:08.383Z,140.63
2018-02-09T08:43:08.372Z,140.63
2018-02-09T08:44:08.357Z,140.63
2018-02-09T08:45:08.347Z,140.63
2018-02-09T08:46:08.338Z,151.88
2018-02-09T08:47:08.323Z,168.75
2018-02-09T08:48:08.347Z,168.75
2018-02-09T08:49:08.301Z,163.13
2018-02-09T08:50:08.285Z,163.13
2018-02-09T08:51:08.278Z,163.13
2018-02-09T08:52:08.262Z,168.75
2018-02-09T08:53:08.251Z,174.38
2018-02-09T08:54:08.240Z,174.38
2018-02-09T08:55:08.227Z,180.00
2018-02-09T08:56:08.214Z,185.63
2018-02-09T08:57:08.205Z,185.63
2018-02-09T08:58:08.194Z,185.63
2018-02-09T08:59:08.180Z,191.25
2018-02-09T09:00:08.168Z,191.25
2018-02-09T09:01:08.156Z,196.88
2018-02-09T09:02:08.153Z,196.88
2018-02-09T09:03:08.133Z,202.50
2018-02-09T09:04:08.126Z,208.13
2018-02-09T09:05:08.109Z,202.50
2018-02-09T09:06:08.099Z,202.50
2018-02-09T09:07:08.086Z,225.00
2018-02-09T09:08:08.074Z,225.00
2018-02-09T09:09:08.067Z,219.38
2018-02-09T09:10:08.058Z,196.88
2018-02-09T09:11:08.040Z,185.63
2018-02-09T09:12:08.029Z,196.88
2018-02-09T09:13:08.017Z,213.75
2018-02-09T09:14:08.006Z,213.75
2018-02-09T09:15:07.993Z,191.25
2018-02-09T09:16:07.983Z,180.00
2018-02-09T09:17:07.973Z,180.00
2018-02-09T09:18:07.961Z,174.38
2018-02-09T09:19:07.946Z,180.00
2018-02-09T09:20:07.935Z,174.38
2018-02-09T09:21:07.924Z,168.75
2018-02-09T09:22:07.913Z,168.75
2018-02-09T09:23:07.900Z,168.75
2018-02-09T09:24:07.889Z,180.00
2018-02-09T09:25:07.879Z,196.88
2018-02-09T09:26:07.866Z,202.50
2018-02-09T09:27:07.853Z,191.25
2018-02-09T09:28:07.842Z,180.00
2018-02-09T09:29:07.833Z,174.38
2018-02-09T09:30:07.820Z,168.75
2018-02-09T09:31:07.809Z,168.75
2018-02-09T09:32:07.794Z,163.13
2018-02-09T09:33:07.783Z,163.13
2018-02-09T09:34:07.774Z,168.75
2018-02-09T09:35:07.759Z,168.75
2018-02-09T09:36:07.749Z,168.75
2018-02-09T09:37:07.737Z,174.38
2018-02-09T09:38:07.725Z,168.75
2018-02-09T09:39:07.713Z,174.38
2018-02-09T09:40:07.701Z,174.38
2018-02-09T09:41:07.691Z,174.38
2018-02-09T09:42:07.680Z,168.75
2018-02-09T09:43:07.667Z,168.75
2018-02-09T09:44:07.657Z,163.13
2018-02-09T09:45:07.643Z,163.13
2018-02-09T09:46:07.634Z,163.13
2018-02-09T09:47:07.904Z,163.13
2018-02-09T09:48:07.609Z,163.13
2018-02-09T09:49:07.633Z,163.13
2018-02-09T09:50:07.584Z,157.50
2018-02-09T09:51:07.575Z,157.50
2018-02-09T09:52:07.564Z,157.50
2018-02-09T09:53:07.549Z,157.50
2018-02-09T09:54:07.540Z,157.50
2018-02-09T09:55:07.527Z,157.50
2018-02-09T09:56:07.518Z,157.50
2018-02-09T09:57:07.506Z,157.50
2018-02-09T09:58:07.494Z,157.50
2018-02-09T09:59:07.482Z,157.50
2018-02-09T10:00:07.472Z,157.50
2018-02-09T10:01:07.512Z,157.50
2018-02-09T10:02:07.448Z,157.50
2018-02-09T10:03:07.436Z,163.13
2018-02-09T10:04:07.477Z,163.13
2018-02-09T10:05:07.414Z,157.50
2018-02-09T10:06:07.412Z,157.50
2018-02-09T10:07:07.491Z,157.50
2018-02-09T10:08:07.376Z,157.50
2018-02-09T10:09:07.371Z,157.50
2018-02-09T10:10:07.356Z,151.88
2018-02-09T10:11:07.345Z,157.50
2018-02-09T10:12:07.739Z,163.13
2018-02-09T10:13:07.323Z,157.50
2018-02-09T10:14:07.311Z,157.50
2018-02-09T10:15:07.300Z,157.50
2018-02-09T10:16:07.290Z,151.88
2018-02-09T10:17:07.374Z,151.88
2018-02-09T10:18:07.515Z,146.25
2018-02-09T10:19:07.254Z,146.25
2018-02-09T10:20:07.243Z,146.25
2018-02-09T10:21:07.235Z,168.75
2018-02-09T10:22:07.222Z,180.00
2018-02-09T10:23:07.259Z,185.63
2018-02-09T10:24:07.205Z,185.63
2018-02-09T10:25:07.189Z,219.38
2018-02-09T10:26:07.177Z,225.00
2018-02-09T10:27:07.170Z,219.38
2018-02-09T10:28:07.219Z,213.75
2018-02-09T10:29:07.393Z,213.75
2018-02-09T10:30:07.134Z,219.38
2018-02-09T10:31:07.121Z,208.13
2018-02-09T10:32:07.117Z,196.88
2018-02-09T10:33:07.107Z,185.63
2018-02-09T10:34:07.091Z,168.75
2018-02-09T10:35:07.324Z,163.13
2018-02-09T10:36:07.068Z,163.13
2018-02-09T10:37:07.058Z,163.13
2018-02-09T10:38:07.051Z,168.75
2018-02-09T10:39:07.039Z,168.75
2018-02-09T10:40:07.028Z,163.13
2018-02-09T10:41:07.031Z,157.50
2018-02-09T10:42:07.011Z,157.50
2018-02-09T10:43:06.996Z,157.50
2018-02-09T10:44:06.985Z,157.50
2018-02-09T10:45:07.168Z,157.50
2018-02-09T10:46:06.981Z,157.50
2018-02-09T10:47:06.966Z,157.50
2018-02-09T10:48:07.066Z,157.50
2018-02-09T10:49:07.001Z,157.50
2018-02-09T10:50:06.924Z,157.50
2018-02-09T10:51:06.911Z,157.50
2018-02-09T10:52:06.901Z,157.50
2018-02-09T10:53:06.894Z,157.50
2018-02-09T10:54:06.881Z,157.50
2018-02-09T10:55:06.870Z,157.50
2018-02-09T10:56:06.861Z,157.50
2018-02-09T10:57:06.852Z,151.88
2018-02-09T10:58:06.845Z,146.25
2018-02-09T10:59:06.836Z,146.25
2018-02-09T11:00:06.818Z,151.88
2018-02-09T11:01:06.809Z,151.88
2018-02-09T11:02:06.811Z,157.50
2018-02-09T11:03:06.788Z,157.50
2018-02-09T11:04:06.779Z,157.50
2018-02-09T11:05:06.768Z,157.50
2018-02-09T11:06:06.756Z,163.13
2018-02-09T11:07:06.747Z,174.38
2018-02-09T11:08:06.741Z,168.75
2018-02-09T11:09:06.727Z,163.13
2018-02-09T11:10:06.721Z,157.50
2018-02-09T11:11:06.706Z,151.88
2018-02-09T11:12:06.694Z,151.88
2018-02-09T11:13:06.687Z,146.25
2018-02-09T11:14:06.677Z,140.63
2018-02-09T11:15:06.710Z,140.63
2018-02-09T11:16:06.656Z,146.25
2018-02-09T11:17:06.645Z,140.63
2018-02-09T11:18:06.634Z,135.00
2018-02-09T11:19:06.625Z,135.00
2018-02-09T11:20:06.614Z,135.00
2018-02-09T11:21:06.604Z,146.25
2018-02-09T11:22:06.595Z,168.75
2018-02-09T11:23:06.653Z,185.63
2018-02-09T11:24:06.573Z,202.50
2018-02-09T11:25:06.564Z,213.75
2018-02-09T11:26:06.553Z,219.38
2018-02-09T11:27:06.552Z,225.00
2018-02-09T11:28:06.538Z,225.00
2018-02-09T11:29:06.523Z,225.00
2018-02-09T11:30:06.513Z,219.38
2018-02-09T11:31:06.511Z,219.38
2018-02-09T11:32:06.499Z,219.38
2018-02-09T11:33:06.484Z,213.75
2018-02-09T11:34:06.474Z,213.75
2018-02-09T11:35:06.465Z,219.38
2018-02-09T11:36:06.455Z,219.38
2018-02-09T11:37:06.444Z,219.38
2018-02-09T11:38:06.434Z,213.75
2018-02-09T11:39:06.426Z,213.75
2018-02-09T11:40:06.423Z,219.38
2018-02-09T11:41:06.408Z,219.38
2018-02-09T11:42:06.398Z,219.38
2018-02-09T11:43:06.388Z,213.75
2018-02-09T11:44:06.404Z,213.75
2018-02-09T11:45:06.374Z,208.13
2018-02-09T11:46:06.357Z,208.13
2018-02-09T11:47:06.349Z,213.75
2018-02-09T11:48:06.342Z,213.75
2018-02-09T11:49:06.326Z,213.75
2018-02-09T11:50:06.322Z,219.38
2018-02-09T11:51:06.311Z,219.38
2018-02-09T11:52:06.301Z,213.75
2018-02-09T11:53:06.292Z,219.38
2018-02-09T11:54:06.284Z,219.38
2018-02-09T11:55:06.272Z,225.00
2018-02-09T11:56:06.264Z,230.63
2018-02-09T11:57:06.256Z,225.00
2018-02-09T11:58:06.250Z,230.63
2018-02-09T11:59:06.235Z,230.63
2018-02-09T12:00:06.228Z,230.63
2018-02-09T12:01:06.219Z,230.63
2018-02-09T12:02:06.210Z,230.63
2018-02-09T12:03:06.200Z,236.25
2018-02-09T12:04:06.191Z,230.63
2018-02-09T12:05:06.183Z,230.63
2018-02-09T12:06:06.174Z,225.00
2018-02-09T12:07:06.165Z,213.75
2018-02-09T12:08:06.158Z,208.13
2018-02-09T12:09:06.146Z,208.13
2018-02-09T12:10:06.141Z,202.50
2018-02-09T12:11:06.127Z,185.63
2018-02-09T12:12:06.120Z,191.25
2018-02-09T12:13:06.111Z,196.88
2018-02-09T12:14:06.104Z,202.50
2018-02-09T12:15:06.089Z,213.75
2018-02-09T12:16:06.082Z,219.38
2018-02-09T12:17:06.075Z,225.00
2018-02-09T12:18:06.068Z,236.25
2018-02-09T12:19:06.056Z,241.88
2018-02-09T12:20:06.047Z,230.63
2018-02-09T12:21:06.037Z,208.13
2018-02-09T12:22:06.032Z,196.88
2018-02-09T12:23:06.021Z,185.63
2018-02-09T12:24:06.007Z,180.00
2018-02-09T12:25:06.004Z,185.63
2018-02-09T12:26:05.994Z,191.25
2018-02-09T12:27:05.985Z,191.25
2018-02-09T12:28:05.976Z,185.63
2018-02-09T12:29:05.968Z,180.00
2018-02-09T12:30:05.958Z,163.13
2018-02-09T12:31:05.946Z,151.88
2018-02-09T12:32:05.942Z,151.88
2018-02-09T12:33:05.932Z,151.88
2018-02-09T12:34:05.924Z,151.88
2018-02-09T12:35:05.914Z,140.63
2018-02-09T12:36:05.902Z,135.00
2018-02-09T12:37:05.901Z,129.38
2018-02-09T12:38:05.899Z,129.38
2018-02-09T12:39:05.879Z,135.00
2018-02-09T12:40:05.871Z,135.00
2018-02-09T12:41:05.861Z,129.38
2018-02-09T12:42:05.852Z,129.38
2018-02-09T12:43:05.840Z,129.38
2018-02-09T12:44:05.833Z,129.38
2018-02-09T12:45:05.825Z,129.38
2018-02-09T12:46:05.817Z,129.38
2018-02-09T12:47:05.806Z,129.38
2018-02-09T12:48:05.798Z,129.38
2018-02-09T12:49:05.815Z,123.75
2018-02-09T12:50:05.780Z,123.75
2018-02-09T12:51:05.771Z,123.75
2018-02-09T12:52:05.761Z,123.75
2018-02-09T12:53:05.754Z,123.75
2018-02-09T12:54:05.771Z,123.75
2018-02-09T12:55:05.738Z,123.75
2018-02-09T12:56:05.722Z,123.75